sensor_id;sensor_type;location;lat;lon;timestamp;P1;durP1;ratioP1;P2;durP2;ratioP2
21107;SDS011;10712;52.944;9.098;2023-07-29T00:02:08;5.18;;;4.78;;
21107;SDS011;10712;52.944;9.098;2023-07-29T00:04:34;5.65;;;5.15;;
21107;SDS011;10712;52.944;9.098;2023-07-29T00:06:59;7.88;;;6.47;;
21107;SDS011;10712;52.944;9.098;2023-07-29T00:09:25;11.13;;;6.35;;
21107;SDS011;10712;52.944;9.098;2023-07-29T00:11:51;6.32;;;5.82;;
21107;SDS011;10712;52.944;9.098;2023-07-29T00:14:17;7.18;;;6.57;;
21107;SDS011;10712;52.944;9.098;2023-07-29T00:16:42;9.50;;;6.07;;
21107;SDS011;10712;52.944;9.098;2023-07-29T00:19:08;4.78;;;4.38;;
21107;SDS011;10712;52.944;9.098;2023-07-29T00:21:34;6.35;;;5.75;;
21107;SDS011;10712;52.944;9.098;2023-07-29T00:24:00;5.70;;;5.20;;
21107;SDS011;10712;52.944;9.098;2023-07-29T00:26:26;6.55;;;5.95;;
21107;SDS011;10712;52.944;9.098;2023-07-29T00:28:54;5.93;;;5.43;;
21107;SDS011;10712;52.944;9.098;2023-07-29T00:31:21;6.85;;;6.20;;
21107;SDS011;10712;52.944;9.098;2023-07-29T00:33:47;8.63;;;5.45;;
21107;SDS011;10712;52.944;9.098;2023-07-29T00:36:13;5.78;;;5.28;;
21107;SDS011;10712;52.944;9.098;2023-07-29T00:38:39;5.75;;;4.53;;
21107;SDS011;10712;52.944;9.098;2023-07-29T00:41:05;5.90;;;5.40;;
21107;SDS011;10712;52.944;9.098;2023-07-29T00:43:32;5.45;;;5.05;;
21107;SDS011;10712;52.944;9.098;2023-07-29T00:46:00;5.00;;;4.60;;
21107;SDS011;10712;52.944;9.098;2023-07-29T00:48:26;5.13;;;4.57;;
21107;SDS011;10712;52.944;9.098;2023-07-29T00:50:52;5.55;;;5.05;;
21107;SDS011;10712;52.944;9.098;2023-07-29T00:53:19;5.35;;;4.90;;
21107;SDS011;10712;52.944;9.098;2023-07-29T00:55:45;5.80;;;5.25;;
21107;SDS011;10712;52.944;9.098;2023-07-29T00:58:11;5.72;;;5.13;;
21107;SDS011;10712;52.944;9.098;2023-07-29T01:00:37;5.93;;;5.32;;
21107;SDS011;10712;52.944;9.098;2023-07-29T01:03:03;6.30;;;5.70;;
21107;SDS011;10712;52.944;9.098;2023-07-29T01:05:32;6.43;;;5.93;;
21107;SDS011;10712;52.944;9.098;2023-07-29T01:08:31;6.82;;;6.18;;
21107;SDS011;10712;52.944;9.098;2023-07-29T01:17:03;8.02;;;6.78;;
21107;SDS011;10712;52.944;9.098;2023-07-29T01:19:47;6.55;;;5.90;;
21107;SDS011;10712;52.944;9.098;2023-07-29T01:22:34;9.02;;;5.63;;
21107;SDS011;10712;52.944;9.098;2023-07-29T01:25:02;8.65;;;7.10;;
21107;SDS011;10712;52.944;9.098;2023-07-29T01:27:29;7.55;;;6.78;;
21107;SDS011;10712;52.944;9.098;2023-07-29T01:29:56;8.52;;;7.57;;
21107;SDS011;10712;52.944;9.098;2023-07-29T01:32:25;7.28;;;6.57;;
21107;SDS011;10712;52.944;9.098;2023-07-29T01:38:13;6.70;;;5.90;;
21107;SDS011;10712;52.944;9.098;2023-07-29T01:40:44;9.00;;;7.03;;
21107;SDS011;10712;52.944;9.098;2023-07-29T01:43:11;8.90;;;7.45;;
21107;SDS011;10712;52.944;9.098;2023-07-29T01:45:38;9.55;;;7.78;;
21107;SDS011;10712;52.944;9.098;2023-07-29T01:48:05;9.82;;;8.43;;
21107;SDS011;10712;52.944;9.098;2023-07-29T01:50:32;8.85;;;7.03;;
21107;SDS011;10712;52.944;9.098;2023-07-29T01:52:58;8.65;;;6.57;;
21107;SDS011;10712;52.944;9.098;2023-07-29T01:55:24;7.22;;;6.60;;
21107;SDS011;10712;52.944;9.098;2023-07-29T01:57:50;8.35;;;7.53;;
21107;SDS011;10712;52.944;9.098;2023-07-29T02:00:17;7.85;;;7.05;;
21107;SDS011;10712;52.944;9.098;2023-07-29T02:02:44;9.80;;;7.53;;
21107;SDS011;10712;52.944;9.098;2023-07-29T02:05:10;9.02;;;7.55;;
21107;SDS011;10712;52.944;9.098;2023-07-29T02:07:36;8.95;;;6.78;;
21107;SDS011;10712;52.944;9.098;2023-07-29T02:10:02;8.93;;;7.43;;
21107;SDS011;10712;52.944;9.098;2023-07-29T02:12:28;8.48;;;7.63;;
21107;SDS011;10712;52.944;9.098;2023-07-29T02:14:54;8.80;;;7.75;;
21107;SDS011;10712;52.944;9.098;2023-07-29T02:17:19;10.98;;;7.05;;
21107;SDS011;10712;52.944;9.098;2023-07-29T02:19:46;10.80;;;7.90;;
21107;SDS011;10712;52.944;9.098;2023-07-29T02:22:15;10.70;;;8.15;;
21107;SDS011;10712;52.944;9.098;2023-07-29T02:24:42;7.55;;;6.85;;
21107;SDS011;10712;52.944;9.098;2023-07-29T02:27:09;9.43;;;7.47;;
21107;SDS011;10712;52.944;9.098;2023-07-29T02:29:35;6.40;;;5.80;;
21107;SDS011;10712;52.944;9.098;2023-07-29T02:32:01;6.95;;;6.25;;
21107;SDS011;10712;52.944;9.098;2023-07-29T02:34:28;8.10;;;6.03;;
21107;SDS011;10712;52.944;9.098;2023-07-29T02:36:55;6.25;;;5.65;;
21107;SDS011;10712;52.944;9.098;2023-07-29T02:39:21;5.50;;;5.00;;
21107;SDS011;10712;52.944;9.098;2023-07-29T02:41:48;8.35;;;5.68;;
21107;SDS011;10712;52.944;9.098;2023-07-29T02:44:15;6.63;;;6.03;;
21107;SDS011;10712;52.944;9.098;2023-07-29T02:46:41;5.47;;;4.97;;
21107;SDS011;10712;52.944;9.098;2023-07-29T02:49:07;5.63;;;4.88;;
21107;SDS011;10712;52.944;9.098;2023-07-29T02:51:33;6.70;;;6.10;;
21107;SDS011;10712;52.944;9.098;2023-07-29T02:53:59;5.82;;;5.22;;
21107;SDS011;10712;52.944;9.098;2023-07-29T02:56:24;10.13;;;8.00;;
21107;SDS011;10712;52.944;9.098;2023-07-29T02:58:50;7.15;;;6.35;;
21107;SDS011;10712;52.944;9.098;2023-07-29T03:01:17;7.80;;;6.80;;
21107;SDS011;10712;52.944;9.098;2023-07-29T03:03:43;7.75;;;6.68;;
21107;SDS011;10712;52.944;9.098;2023-07-29T03:06:10;6.22;;;5.72;;
21107;SDS011;10712;52.944;9.098;2023-07-29T03:08:38;7.10;;;6.40;;
21107;SDS011;10712;52.944;9.098;2023-07-29T03:11:12;6.60;;;5.88;;
21107;SDS011;10712;52.944;9.098;2023-07-29T03:13:40;8.10;;;6.47;;
21107;SDS011;10712;52.944;9.098;2023-07-29T03:16:10;7.32;;;6.05;;
21107;SDS011;10712;52.944;9.098;2023-07-29T03:18:47;7.93;;;6.80;;
21107;SDS011;10712;52.944;9.098;2023-07-29T03:21:14;6.78;;;6.18;;
21107;SDS011;10712;52.944;9.098;2023-07-29T03:23:40;6.85;;;5.85;;
21107;SDS011;10712;52.944;9.098;2023-07-29T03:26:06;9.07;;;6.57;;
21107;SDS011;10712;52.944;9.098;2023-07-29T03:28:36;7.47;;;6.50;;
21107;SDS011;10712;52.944;9.098;2023-07-29T03:31:07;10.30;;;6.25;;
21107;SDS011;10712;52.944;9.098;2023-07-29T03:33:33;7.65;;;6.18;;
21107;SDS011;10712;52.944;9.098;2023-07-29T03:35:59;8.88;;;6.60;;
21107;SDS011;10712;52.944;9.098;2023-07-29T03:38:25;6.28;;;5.68;;
21107;SDS011;10712;52.944;9.098;2023-07-29T03:40:51;7.22;;;5.97;;
21107;SDS011;10712;52.944;9.098;2023-07-29T03:43:18;6.15;;;5.55;;
21107;SDS011;10712;52.944;9.098;2023-07-29T03:45:44;6.38;;;5.53;;
21107;SDS011;10712;52.944;9.098;2023-07-29T03:48:10;5.95;;;5.45;;
21107;SDS011;10712;52.944;9.098;2023-07-29T03:50:36;7.90;;;5.68;;
21107;SDS011;10712;52.944;9.098;2023-07-29T03:53:03;5.78;;;5.13;;
21107;SDS011;10712;52.944;9.098;2023-07-29T03:55:29;7.78;;;6.65;;
21107;SDS011;10712;52.944;9.098;2023-07-29T03:57:59;5.93;;;5.30;;
21107;SDS011;10712;52.944;9.098;2023-07-29T04:00:26;7.20;;;6.50;;
21107;SDS011;10712;52.944;9.098;2023-07-29T04:02:53;6.43;;;5.32;;
21107;SDS011;10712;52.944;9.098;2023-07-29T04:05:19;6.00;;;5.28;;
21107;SDS011;10712;52.944;9.098;2023-07-29T04:07:45;5.72;;;5.20;;
21107;SDS011;10712;52.944;9.098;2023-07-29T04:10:11;6.15;;;5.55;;
21107;SDS011;10712;52.944;9.098;2023-07-29T04:12:37;7.28;;;5.50;;
21107;SDS011;10712;52.944;9.098;2023-07-29T04:15:03;8.38;;;7.05;;
21107;SDS011;10712;52.944;9.098;2023-07-29T04:17:30;6.82;;;6.22;;
21107;SDS011;10712;52.944;9.098;2023-07-29T04:19:56;6.22;;;5.63;;
21107;SDS011;10712;52.944;9.098;2023-07-29T04:22:27;8.70;;;6.60;;
21107;SDS011;10712;52.944;9.098;2023-07-29T04:24:53;6.43;;;5.82;;
21107;SDS011;10712;52.944;9.098;2023-07-29T04:27:19;6.85;;;6.25;;
21107;SDS011;10712;52.944;9.098;2023-07-29T04:29:45;10.07;;;6.90;;
21107;SDS011;10712;52.944;9.098;2023-07-29T04:32:10;7.50;;;6.78;;
21107;SDS011;10712;52.944;9.098;2023-07-29T04:34:36;6.10;;;5.50;;
21107;SDS011;10712;52.944;9.098;2023-07-29T04:37:02;7.97;;;7.18;;
21107;SDS011;10712;52.944;9.098;2023-07-29T04:39:28;8.18;;;7.38;;
21107;SDS011;10712;52.944;9.098;2023-07-29T04:41:53;7.65;;;6.97;;
21107;SDS011;10712;52.944;9.098;2023-07-29T04:44:19;7.20;;;6.45;;
21107;SDS011;10712;52.944;9.098;2023-07-29T04:46:45;6.22;;;5.53;;
21107;SDS011;10712;52.944;9.098;2023-07-29T04:49:11;7.28;;;6.68;;
21107;SDS011;10712;52.944;9.098;2023-07-29T04:51:37;9.27;;;7.63;;
21107;SDS011;10712;52.944;9.098;2023-07-29T04:54:02;8.45;;;6.35;;
21107;SDS011;10712;52.944;9.098;2023-07-29T04:56:29;8.82;;;7.97;;
21107;SDS011;10712;52.944;9.098;2023-07-29T04:58:55;8.27;;;7.47;;
21107;SDS011;10712;52.944;9.098;2023-07-29T05:01:21;7.88;;;6.93;;
21107;SDS011;10712;52.944;9.098;2023-07-29T05:03:46;7.80;;;7.10;;
21107;SDS011;10712;52.944;9.098;2023-07-29T05:06:12;8.45;;;7.70;;
21107;SDS011;10712;52.944;9.098;2023-07-29T05:08:38;11.43;;;10.23;;
21107;SDS011;10712;52.944;9.098;2023-07-29T05:11:04;10.13;;;8.85;;
21107;SDS011;10712;52.944;9.098;2023-07-29T05:13:30;9.30;;;7.70;;
21107;SDS011;10712;52.944;9.098;2023-07-29T05:15:56;8.90;;;7.97;;
21107;SDS011;10712;52.944;9.098;2023-07-29T05:18:22;8.63;;;7.32;;
21107;SDS011;10712;52.944;9.098;2023-07-29T05:20:48;7.60;;;6.90;;
21107;SDS011;10712;52.944;9.098;2023-07-29T05:23:14;6.30;;;5.70;;
21107;SDS011;10712;52.944;9.098;2023-07-29T05:25:40;9.13;;;8.23;;
21107;SDS011;10712;52.944;9.098;2023-07-29T05:28:06;8.02;;;7.22;;
21107;SDS011;10712;52.944;9.098;2023-07-29T05:30:32;13.27;;;9.32;;
21107;SDS011;10712;52.944;9.098;2023-07-29T05:33:02;10.55;;;9.30;;
21107;SDS011;10712;52.944;9.098;2023-07-29T05:35:30;11.48;;;10.02;;
21107;SDS011;10712;52.944;9.098;2023-07-29T05:37:56;9.60;;;8.50;;
21107;SDS011;10712;52.944;9.098;2023-07-29T05:40:22;8.73;;;7.82;;
21107;SDS011;10712;52.944;9.098;2023-07-29T05:42:47;9.95;;;8.65;;
21107;SDS011;10712;52.944;9.098;2023-07-29T05:45:13;11.32;;;8.93;;
21107;SDS011;10712;52.944;9.098;2023-07-29T05:47:39;9.93;;;8.85;;
21107;SDS011;10712;52.944;9.098;2023-07-29T05:50:06;9.25;;;8.35;;
21107;SDS011;10712;52.944;9.098;2023-07-29T05:52:33;9.70;;;8.60;;
21107;SDS011;10712;52.944;9.098;2023-07-29T05:55:00;7.90;;;7.20;;
21107;SDS011;10712;52.944;9.098;2023-07-29T05:57:26;8.88;;;7.97;;
21107;SDS011;10712;52.944;9.098;2023-07-29T05:59:53;9.02;;;7.20;;
21107;SDS011;10712;52.944;9.098;2023-07-29T06:02:19;10.18;;;8.63;;
21107;SDS011;10712;52.944;9.098;2023-07-29T06:04:44;12.30;;;10.23;;
21107;SDS011;10712;52.944;9.098;2023-07-29T06:07:10;9.68;;;8.70;;
21107;SDS011;10712;52.944;9.098;2023-07-29T06:09:36;12.40;;;10.50;;
21107;SDS011;10712;52.944;9.098;2023-07-29T06:12:02;12.68;;;10.52;;
21107;SDS011;10712;52.944;9.098;2023-07-29T06:14:28;13.52;;;12.00;;
21107;SDS011;10712;52.944;9.098;2023-07-29T06:16:54;10.40;;;9.30;;
21107;SDS011;10712;52.944;9.098;2023-07-29T06:19:20;13.98;;;11.32;;
21107;SDS011;10712;52.944;9.098;2023-07-29T06:21:46;12.02;;;10.55;;
21107;SDS011;10712;52.944;9.098;2023-07-29T06:24:12;13.88;;;12.40;;
21107;SDS011;10712;52.944;9.098;2023-07-29T06:26:38;12.63;;;11.30;;
21107;SDS011;10712;52.944;9.098;2023-07-29T06:29:04;13.45;;;12.15;;
21107;SDS011;10712;52.944;9.098;2023-07-29T06:31:29;14.25;;;12.45;;
21107;SDS011;10712;52.944;9.098;2023-07-29T06:33:57;16.20;;;14.00;;
21107;SDS011;10712;52.944;9.098;2023-07-29T06:36:23;16.50;;;12.23;;
21107;SDS011;10712;52.944;9.098;2023-07-29T06:38:49;16.83;;;14.07;;
21107;SDS011;10712;52.944;9.098;2023-07-29T06:41:15;18.02;;;14.52;;
21107;SDS011;10712;52.944;9.098;2023-07-29T06:43:41;14.10;;;12.60;;
21107;SDS011;10712;52.944;9.098;2023-07-29T06:46:07;12.50;;;11.20;;
21107;SDS011;10712;52.944;9.098;2023-07-29T06:48:33;14.30;;;12.77;;
21107;SDS011;10712;52.944;9.098;2023-07-29T06:50:58;12.68;;;11.38;;
21107;SDS011;10712;52.944;9.098;2023-07-29T06:53:28;14.98;;;12.68;;
21107;SDS011;10712;52.944;9.098;2023-07-29T06:55:54;10.50;;;9.50;;
21107;SDS011;10712;52.944;9.098;2023-07-29T06:58:20;12.77;;;11.48;;
21107;SDS011;10712;52.944;9.098;2023-07-29T07:00:46;13.07;;;11.77;;
21107;SDS011;10712;52.944;9.098;2023-07-29T07:03:12;12.70;;;11.15;;
21107;SDS011;10712;52.944;9.098;2023-07-29T07:05:38;14.60;;;11.70;;
21107;SDS011;10712;52.944;9.098;2023-07-29T07:08:04;14.68;;;11.80;;
21107;SDS011;10712;52.944;9.098;2023-07-29T07:10:29;17.42;;;13.50;;
21107;SDS011;10712;52.944;9.098;2023-07-29T07:12:55;12.18;;;10.77;;
21107;SDS011;10712;52.944;9.098;2023-07-29T07:15:21;12.95;;;10.68;;
21107;SDS011;10712;52.944;9.098;2023-07-29T07:17:47;11.95;;;10.75;;
21107;SDS011;10712;52.944;9.098;2023-07-29T07:20:12;17.38;;;13.85;;
21107;SDS011;10712;52.944;9.098;2023-07-29T07:22:38;14.27;;;12.35;;
21107;SDS011;10712;52.944;9.098;2023-07-29T07:25:04;17.13;;;15.30;;
21107;SDS011;10712;52.944;9.098;2023-07-29T07:27:30;14.87;;;13.37;;
21107;SDS011;10712;52.944;9.098;2023-07-29T07:29:56;14.18;;;11.52;;
21107;SDS011;10712;52.944;9.098;2023-07-29T07:32:22;14.82;;;12.90;;
21107;SDS011;10712;52.944;9.098;2023-07-29T07:34:47;16.00;;;13.07;;
21107;SDS011;10712;52.944;9.098;2023-07-29T07:37:13;16.35;;;14.63;;
21107;SDS011;10712;52.944;9.098;2023-07-29T07:39:39;16.20;;;14.60;;
21107;SDS011;10712;52.944;9.098;2023-07-29T07:42:05;18.20;;;16.27;;
21107;SDS011;10712;52.944;9.098;2023-07-29T07:44:31;18.35;;;16.25;;
21107;SDS011;10712;52.944;9.098;2023-07-29T07:46:56;18.08;;;16.38;;
21107;SDS011;10712;52.944;9.098;2023-07-29T07:49:23;17.10;;;15.55;;
21107;SDS011;10712;52.944;9.098;2023-07-29T07:51:48;15.95;;;14.45;;
21107;SDS011;10712;52.944;9.098;2023-07-29T07:54:14;17.15;;;15.38;;
21107;SDS011;10712;52.944;9.098;2023-07-29T07:56:40;15.48;;;13.88;;
21107;SDS011;10712;52.944;9.098;2023-07-29T07:59:06;14.35;;;12.95;;
21107;SDS011;10712;52.944;9.098;2023-07-29T08:01:35;13.80;;;12.40;;
21107;SDS011;10712;52.944;9.098;2023-07-29T08:04:02;13.35;;;12.02;;
21107;SDS011;10712;52.944;9.098;2023-07-29T08:06:29;13.98;;;12.50;;
21107;SDS011;10712;52.944;9.098;2023-07-29T08:08:56;13.55;;;12.23;;
21107;SDS011;10712;52.944;9.098;2023-07-29T08:11:22;12.20;;;11.10;;
21107;SDS011;10712;52.944;9.098;2023-07-29T08:13:49;12.70;;;11.50;;
21107;SDS011;10712;52.944;9.098;2023-07-29T08:16:15;11.20;;;10.23;;
21107;SDS011;10712;52.944;9.098;2023-07-29T08:18:40;11.13;;;10.13;;
21107;SDS011;10712;52.944;9.098;2023-07-29T08:21:06;12.52;;;11.32;;
21107;SDS011;10712;52.944;9.098;2023-07-29T08:23:33;10.93;;;9.82;;
21107;SDS011;10712;52.944;9.098;2023-07-29T08:26:02;11.63;;;10.52;;
21107;SDS011;10712;52.944;9.098;2023-07-29T08:28:31;9.98;;;9.00;;
21107;SDS011;10712;52.944;9.098;2023-07-29T08:31:02;10.60;;;9.65;;
21107;SDS011;10712;52.944;9.098;2023-07-29T08:33:29;9.63;;;8.73;;
21107;SDS011;10712;52.944;9.098;2023-07-29T08:35:55;11.85;;;10.70;;
21107;SDS011;10712;52.944;9.098;2023-07-29T08:38:22;10.10;;;9.13;;
21107;SDS011;10712;52.944;9.098;2023-07-29T08:43:39;9.75;;;8.63;;
21107;SDS011;10712;52.944;9.098;2023-07-29T08:46:32;7.57;;;6.78;;
21107;SDS011;10712;52.944;9.098;2023-07-29T08:48:58;7.60;;;6.90;;
21107;SDS011;10712;52.944;9.098;2023-07-29T08:51:24;7.55;;;6.85;;
21107;SDS011;10712;52.944;9.098;2023-07-29T08:53:52;8.30;;;7.50;;
21107;SDS011;10712;52.944;9.098;2023-07-29T08:56:19;7.00;;;6.40;;
21107;SDS011;10712;52.944;9.098;2023-07-29T08:58:45;8.63;;;7.80;;
21107;SDS011;10712;52.944;9.098;2023-07-29T09:01:11;9.10;;;8.23;;
21107;SDS011;10712;52.944;9.098;2023-07-29T09:03:37;9.02;;;7.97;;
21107;SDS011;10712;52.944;9.098;2023-07-29T09:06:03;7.47;;;6.85;;
21107;SDS011;10712;52.944;9.098;2023-07-29T09:08:30;8.18;;;7.47;;
21107;SDS011;10712;52.944;9.098;2023-07-29T09:10:57;6.65;;;5.95;;
21107;SDS011;10712;52.944;9.098;2023-07-29T09:13:23;6.28;;;5.68;;
21107;SDS011;10712;52.944;9.098;2023-07-29T09:15:53;6.10;;;5.53;;
21107;SDS011;10712;52.944;9.098;2023-07-29T09:18:22;8.93;;;6.68;;
21107;SDS011;10712;52.944;9.098;2023-07-29T09:20:49;7.10;;;4.95;;
21107;SDS011;10712;52.944;9.098;2023-07-29T09:23:15;8.02;;;7.20;;
21107;SDS011;10712;52.944;9.098;2023-07-29T09:25:42;6.60;;;5.97;;
21107;SDS011;10712;52.944;9.098;2023-07-29T09:28:11;7.15;;;6.38;;
21107;SDS011;10712;52.944;9.098;2023-07-29T09:30:39;6.40;;;5.90;;
21107;SDS011;10712;52.944;9.098;2023-07-29T09:33:07;6.85;;;6.05;;
21107;SDS011;10712;52.944;9.098;2023-07-29T09:35:34;6.80;;;6.20;;
21107;SDS011;10712;52.944;9.098;2023-07-29T09:38:02;6.90;;;6.03;;
21107;SDS011;10712;52.944;9.098;2023-07-29T09:40:35;6.30;;;5.68;;
21107;SDS011;10712;52.944;9.098;2023-07-29T09:43:03;6.43;;;5.60;;
21107;SDS011;10712;52.944;9.098;2023-07-29T09:45:32;6.85;;;6.25;;
21107;SDS011;10712;52.944;9.098;2023-07-29T09:48:00;9.05;;;6.70;;
21107;SDS011;10712;52.944;9.098;2023-07-29T09:50:27;7.28;;;6.57;;
21107;SDS011;10712;52.944;9.098;2023-07-29T09:52:54;7.28;;;6.57;;
21107;SDS011;10712;52.944;9.098;2023-07-29T09:55:25;7.93;;;7.13;;
21107;SDS011;10712;52.944;9.098;2023-07-29T09:57:53;8.25;;;7.55;;
21107;SDS011;10712;52.944;9.098;2023-07-29T10:00:27;8.90;;;8.18;;
21107;SDS011;10712;52.944;9.098;2023-07-29T10:02:54;8.13;;;7.32;;
21107;SDS011;10712;52.944;9.098;2023-07-29T10:05:21;9.90;;;8.60;;
21107;SDS011;10712;52.944;9.098;2023-07-29T10:07:48;10.75;;;9.65;;
21107;SDS011;10712;52.944;9.098;2023-07-29T10:10:15;10.30;;;9.10;;
21107;SDS011;10712;52.944;9.098;2023-07-29T10:12:42;7.90;;;7.20;;
21107;SDS011;10712;52.944;9.098;2023-07-29T10:15:08;8.20;;;7.50;;
21107;SDS011;10712;52.944;9.098;2023-07-29T10:17:36;7.35;;;6.75;;
21107;SDS011;10712;52.944;9.098;2023-07-29T10:20:10;6.63;;;4.68;;
21107;SDS011;10712;52.944;9.098;2023-07-29T10:22:37;4.53;;;4.03;;
21107;SDS011;10712;52.944;9.098;2023-07-29T10:25:04;4.85;;;3.60;;
21107;SDS011;10712;52.944;9.098;2023-07-29T10:27:35;4.05;;;3.40;;
21107;SDS011;10712;52.944;9.098;2023-07-29T10:30:08;3.88;;;3.58;;
21107;SDS011;10712;52.944;9.098;2023-07-29T10:32:38;4.90;;;3.50;;
21107;SDS011;10712;52.944;9.098;2023-07-29T10:35:09;6.53;;;3.03;;
21107;SDS011;10712;52.944;9.098;2023-07-29T10:37:41;6.75;;;3.35;;
21107;SDS011;10712;52.944;9.098;2023-07-29T10:40:08;2.95;;;2.63;;
21107;SDS011;10712;52.944;9.098;2023-07-29T10:42:36;2.90;;;2.70;;
21107;SDS011;10712;52.944;9.098;2023-07-29T10:45:16;3.25;;;2.95;;
21107;SDS011;10712;52.944;9.098;2023-07-29T10:47:44;3.95;;;2.40;;
21107;SDS011;10712;52.944;9.098;2023-07-29T10:50:17;4.55;;;2.35;;
21107;SDS011;10712;52.944;9.098;2023-07-29T10:52:50;2.58;;;2.30;;
21107;SDS011;10712;52.944;9.098;2023-07-29T10:55:24;2.03;;;1.83;;
21107;SDS011;10712;52.944;9.098;2023-07-29T10:58:11;2.80;;;2.30;;
21107;SDS011;10712;52.944;9.098;2023-07-29T11:00:43;4.20;;;2.67;;
21107;SDS011;10712;52.944;9.098;2023-07-29T11:03:11;3.55;;;2.65;;
21107;SDS011;10712;52.944;9.098;2023-07-29T11:10:59;2.75;;;1.33;;
21107;SDS011;10712;52.944;9.098;2023-07-29T11:13:31;1.60;;;1.50;;
21107;SDS011;10712;52.944;9.098;2023-07-29T11:16:02;3.72;;;1.55;;
21107;SDS011;10712;52.944;9.098;2023-07-29T11:18:33;1.63;;;1.52;;
21107;SDS011;10712;52.944;9.098;2023-07-29T11:21:01;2.90;;;1.87;;
21107;SDS011;10712;52.944;9.098;2023-07-29T11:23:33;2.38;;;1.80;;
21107;SDS011;10712;52.944;9.098;2023-07-29T11:26:02;2.78;;;1.67;;
21107;SDS011;10712;52.944;9.098;2023-07-29T11:28:29;2.30;;;1.95;;
21107;SDS011;10712;52.944;9.098;2023-07-29T11:30:55;1.73;;;1.42;;
21107;SDS011;10712;52.944;9.098;2023-07-29T11:33:26;2.38;;;1.85;;
21107;SDS011;10712;52.944;9.098;2023-07-29T11:35:53;3.38;;;1.60;;
21107;SDS011;10712;52.944;9.098;2023-07-29T11:38:20;3.75;;;1.30;;
21107;SDS011;10712;52.944;9.098;2023-07-29T11:40:58;3.42;;;1.92;;
21107;SDS011;10712;52.944;9.098;2023-07-29T11:43:27;3.85;;;1.65;;
21107;SDS011;10712;52.944;9.098;2023-07-29T11:45:53;2.88;;;1.50;;
21107;SDS011;10712;52.944;9.098;2023-07-29T11:48:30;1.40;;;1.30;;
21107;SDS011;10712;52.944;9.098;2023-07-29T11:50:58;1.58;;;1.48;;
21107;SDS011;10712;52.944;9.098;2023-07-29T11:53:30;4.75;;;1.50;;
21107;SDS011;10712;52.944;9.098;2023-07-29T11:55:56;1.67;;;1.58;;
21107;SDS011;10712;52.944;9.098;2023-07-29T11:58:23;3.58;;;1.70;;
21107;SDS011;10712;52.944;9.098;2023-07-29T12:00:49;1.88;;;1.40;;
21107;SDS011;10712;52.944;9.098;2023-07-29T12:03:16;1.65;;;1.55;;
21107;SDS011;10712;52.944;9.098;2023-07-29T12:05:43;1.65;;;1.55;;
21107;SDS011;10712;52.944;9.098;2023-07-29T12:08:10;3.50;;;1.60;;
21107;SDS011;10712;52.944;9.098;2023-07-29T12:10:36;2.45;;;1.38;;
21107;SDS011;10712;52.944;9.098;2023-07-29T12:13:02;1.60;;;1.42;;
21107;SDS011;10712;52.944;9.098;2023-07-29T12:15:29;1.95;;;1.40;;
21107;SDS011;10712;52.944;9.098;2023-07-29T12:17:55;1.88;;;1.77;;
21107;SDS011;10712;52.944;9.098;2023-07-29T12:20:22;4.18;;;1.90;;
21107;SDS011;10712;52.944;9.098;2023-07-29T12:22:52;4.78;;;1.73;;
21107;SDS011;10712;52.944;9.098;2023-07-29T12:27:47;2.92;;;1.55;;
21107;SDS011;10712;52.944;9.098;2023-07-29T12:30:14;2.28;;;1.40;;
21107;SDS011;10712;52.944;9.098;2023-07-29T12:32:43;4.57;;;1.67;;
21107;SDS011;10712;52.944;9.098;2023-07-29T12:35:11;1.58;;;1.20;;
21107;SDS011;10712;52.944;9.098;2023-07-29T12:37:37;2.95;;;1.67;;
21107;SDS011;10712;52.944;9.098;2023-07-29T12:40:07;2.30;;;1.50;;
21107;SDS011;10712;52.944;9.098;2023-07-29T12:42:45;1.33;;;1.23;;
21107;SDS011;10712;52.944;9.098;2023-07-29T12:45:11;1.65;;;1.42;;
21107;SDS011;10712;52.944;9.098;2023-07-29T12:47:36;2.00;;;1.55;;
21107;SDS011;10712;52.944;9.098;2023-07-29T12:50:02;1.63;;;1.45;;
21107;SDS011;10712;52.944;9.098;2023-07-29T12:52:28;2.65;;;1.50;;
21107;SDS011;10712;52.944;9.098;2023-07-29T12:54:54;3.08;;;1.65;;
21107;SDS011;10712;52.944;9.098;2023-07-29T12:57:20;1.63;;;1.40;;
21107;SDS011;10712;52.944;9.098;2023-07-29T12:59:45;1.50;;;1.30;;
21107;SDS011;10712;52.944;9.098;2023-07-29T13:02:11;1.80;;;1.20;;
21107;SDS011;10712;52.944;9.098;2023-07-29T13:04:37;1.40;;;1.30;;
21107;SDS011;10712;52.944;9.098;2023-07-29T13:07:03;1.20;;;1.08;;
21107;SDS011;10712;52.944;9.098;2023-07-29T13:09:30;1.20;;;1.10;;
21107;SDS011;10712;52.944;9.098;2023-07-29T13:11:56;1.90;;;1.10;;
21107;SDS011;10712;52.944;9.098;2023-07-29T13:14:21;3.67;;;1.40;;
21107;SDS011;10712;52.944;9.098;2023-07-29T13:16:47;3.10;;;1.20;;
21107;SDS011;10712;52.944;9.098;2023-07-29T13:19:13;3.40;;;1.35;;
21107;SDS011;10712;52.944;9.098;2023-07-29T13:21:39;2.72;;;1.05;;
21107;SDS011;10712;52.944;9.098;2023-07-29T13:24:04;1.23;;;1.10;;
21107;SDS011;10712;52.944;9.098;2023-07-29T13:26:30;1.52;;;1.20;;
21107;SDS011;10712;52.944;9.098;2023-07-29T13:28:56;1.50;;;1.10;;
21107;SDS011;10712;52.944;9.098;2023-07-29T13:31:22;2.75;;;1.48;;
21107;SDS011;10712;52.944;9.098;2023-07-29T13:33:47;1.13;;;1.00;;
21107;SDS011;10712;52.944;9.098;2023-07-29T13:36:13;3.35;;;1.17;;
21107;SDS011;10712;52.944;9.098;2023-07-29T13:38:39;3.85;;;1.60;;
21107;SDS011;10712;52.944;9.098;2023-07-29T13:41:06;1.40;;;1.30;;
21107;SDS011;10712;52.944;9.098;2023-07-29T13:43:32;1.95;;;1.20;;
21107;SDS011;10712;52.944;9.098;2023-07-29T13:45:58;1.98;;;1.10;;
21107;SDS011;10712;52.944;9.098;2023-07-29T13:48:23;1.33;;;1.15;;
21107;SDS011;10712;52.944;9.098;2023-07-29T13:50:50;0.93;;;0.90;;
21107;SDS011;10712;52.944;9.098;2023-07-29T13:53:16;2.20;;;1.40;;
21107;SDS011;10712;52.944;9.098;2023-07-29T13:55:42;2.05;;;1.20;;
21107;SDS011;10712;52.944;9.098;2023-07-29T13:58:08;4.88;;;1.17;;
21107;SDS011;10712;52.944;9.098;2023-07-29T14:00:33;3.55;;;1.75;;
21107;SDS011;10712;52.944;9.098;2023-07-29T14:02:59;19.33;;;3.95;;
21107;SDS011;10712;52.944;9.098;2023-07-29T14:05:25;31.10;;;11.32;;
21107;SDS011;10712;52.944;9.098;2023-07-29T14:07:51;10.40;;;3.90;;
21107;SDS011;10712;52.944;9.098;2023-07-29T14:10:16;5.55;;;3.20;;
21107;SDS011;10712;52.944;9.098;2023-07-29T14:12:42;3.60;;;1.60;;
21107;SDS011;10712;52.944;9.098;2023-07-29T14:15:08;1.10;;;1.10;;
21107;SDS011;10712;52.944;9.098;2023-07-29T14:17:34;4.20;;;1.40;;
21107;SDS011;10712;52.944;9.098;2023-07-29T14:20:00;3.92;;;1.42;;
21107;SDS011;10712;52.944;9.098;2023-07-29T14:22:26;1.38;;;1.27;;
21107;SDS011;10712;52.944;9.098;2023-07-29T14:24:51;9.50;;;1.88;;
21107;SDS011;10712;52.944;9.098;2023-07-29T14:27:17;1.38;;;1.20;;
21107;SDS011;10712;52.944;9.098;2023-07-29T14:29:43;2.15;;;1.10;;
21107;SDS011;10712;52.944;9.098;2023-07-29T14:32:09;1.42;;;1.10;;
21107;SDS011;10712;52.944;9.098;2023-07-29T14:34:35;1.67;;;1.17;;
21107;SDS011;10712;52.944;9.098;2023-07-29T14:37:01;2.88;;;1.42;;
21107;SDS011;10712;52.944;9.098;2023-07-29T14:39:27;2.42;;;1.30;;
21107;SDS011;10712;52.944;9.098;2023-07-29T14:41:53;1.50;;;1.15;;
21107;SDS011;10712;52.944;9.098;2023-07-29T14:44:18;2.80;;;1.40;;
21107;SDS011;10712;52.944;9.098;2023-07-29T14:46:44;3.78;;;1.33;;
21107;SDS011;10712;52.944;9.098;2023-07-29T14:49:10;2.83;;;1.08;;
21107;SDS011;10712;52.944;9.098;2023-07-29T14:51:36;1.57;;;1.33;;
21107;SDS011;10712;52.944;9.098;2023-07-29T14:54:02;2.53;;;1.20;;
21107;SDS011;10712;52.944;9.098;2023-07-29T14:56:28;1.40;;;1.27;;
21107;SDS011;10712;52.944;9.098;2023-07-29T14:58:54;3.13;;;1.63;;
21107;SDS011;10712;52.944;9.098;2023-07-29T15:01:19;1.30;;;1.20;;
21107;SDS011;10712;52.944;9.098;2023-07-29T15:03:45;4.00;;;1.58;;